Startpagina
METAR-TAF:

METAR-TAF

Vliegvelden :

Curaçao, Nederlandse Antillen

Curaçao International Airport

breedte: 12-12N, lengte: 068-58W, hoogte: 9 m

Actueel weer

Dit bericht is 24 minuten geleden gemaakt, om 04:00 UTC
Wind 6 kt uit het oostzuidoosten
Temperatuur 26°C
Vochtigheid 84%
Druk 1014 hPa
Zicht 10 km of meer
Weinig wolken op 1900 ft

METAR: TNCC 140400Z 12006KT 9999 FEW019 26/23 Q1014 NOSIG

Tijdstip: 00:24 (04:24 UTC)

Verwachting

Dit bericht is 6 uur en het 24 minuten geleden gemaakt, om 22:00 UTC
Verwachting geldig van 14 om 00 UTC tot 14 om 24 UTC
Wind 8 kt uit het oosten
Zicht 10 km of meer
Weinig wolken op 2500 ft
Tijdelijke
van 14 om 06 UTC tot 14 om 14 UTC
Gebroken wolken op 1500 ft
Wijzigt naar
van 14 om 16 UTC tot 14 om 17 UTC
Wind 15 kt uit het oosten

TAF: TNCC 132200Z 1400/1424 10008KT 9999 FEW025 TEMPO 1406/1414 BKN015 BECMG 1416/1417 10015KT

Waarnemingen en weersverwachtingen van meer dan 4000 vliegvelden (METAR en TAF).

De beschikbare stations zijn de gele en rode punten op de kaart.

Ga met uw muis naar het station om de naam te zien.

Klik dan om waarnemingen en weersverwachtingen te zien.

kaart wijzigen: klik op de groene knoppen met een zwart kruis om in te zoomen, op de groene knop met een streepje om uit te zoomen of op de groene pijlen voor aangrenzende kaarten.


METAR-TAF: